sensor_id;sensor_type;location;lat;lon;timestamp;temperature;humidity
63537;DHT22;49686;51.880;5.632;2023-04-15T00:00:56;5.50;99.90
63537;DHT22;49686;51.880;5.632;2023-04-15T00:03:23;5.40;99.90
63537;DHT22;49686;51.880;5.632;2023-04-15T00:05:50;5.40;99.90
63537;DHT22;49686;51.880;5.632;2023-04-15T00:08:17;5.30;99.90
63537;DHT22;49686;51.880;5.632;2023-04-15T00:10:45;5.20;99.90
63537;DHT22;49686;51.880;5.632;2023-04-15T00:13:12;5.30;99.90
63537;DHT22;49686;51.880;5.632;2023-04-15T00:15:39;5.30;99.90
63537;DHT22;49686;51.880;5.632;2023-04-15T00:18:06;5.20;99.90
63537;DHT22;49686;51.880;5.632;2023-04-15T00:20:33;5.20;99.90
63537;DHT22;49686;51.880;5.632;2023-04-15T00:23:01;5.20;99.90
63537;DHT22;49686;51.880;5.632;2023-04-15T00:25:30;5.20;99.90
63537;DHT22;49686;51.880;5.632;2023-04-15T00:28:01;5.10;99.90
63537;DHT22;49686;51.880;5.632;2023-04-15T00:30:28;5.10;99.90
63537;DHT22;49686;51.880;5.632;2023-04-15T00:32:55;5.10;99.90
63537;DHT22;49686;51.880;5.632;2023-04-15T00:35:22;5.10;99.90
63537;DHT22;49686;51.880;5.632;2023-04-15T00:37:54;5.00;99.90
63537;DHT22;49686;51.880;5.632;2023-04-15T00:40:21;5.10;99.90
63537;DHT22;49686;51.880;5.632;2023-04-15T00:42:48;5.10;99.90
63537;DHT22;49686;51.880;5.632;2023-04-15T00:45:16;5.00;99.90
63537;DHT22;49686;51.880;5.632;2023-04-15T00:47:46;5.00;99.90
63537;DHT22;49686;51.880;5.632;2023-04-15T00:50:12;4.90;99.90
63537;DHT22;49686;51.880;5.632;2023-04-15T00:52:39;4.90;99.90
63537;DHT22;49686;51.880;5.632;2023-04-15T00:55:09;4.90;99.90
63537;DHT22;49686;51.880;5.632;2023-04-15T00:57:39;4.90;99.90
63537;DHT22;49686;51.880;5.632;2023-04-15T01:00:07;5.00;99.90
63537;DHT22;49686;51.880;5.632;2023-04-15T01:02:37;5.00;99.90
63537;DHT22;49686;51.880;5.632;2023-04-15T01:05:05;5.00;99.90
63537;DHT22;49686;51.880;5.632;2023-04-15T01:07:32;5.00;99.90
63537;DHT22;49686;51.880;5.632;2023-04-15T01:09:59;4.90;99.90
63537;DHT22;49686;51.880;5.632;2023-04-15T01:12:26;5.00;99.90
63537;DHT22;49686;51.880;5.632;2023-04-15T01:14:54;5.00;99.90
63537;DHT22;49686;51.880;5.632;2023-04-15T01:17:21;5.10;99.90
63537;DHT22;49686;51.880;5.632;2023-04-15T01:19:50;5.00;99.90
63537;DHT22;49686;51.880;5.632;2023-04-15T01:22:17;5.00;99.90
63537;DHT22;49686;51.880;5.632;2023-04-15T01:24:50;4.90;99.90
63537;DHT22;49686;51.880;5.632;2023-04-15T01:27:22;4.90;99.90
63537;DHT22;49686;51.880;5.632;2023-04-15T01:29:48;4.90;99.90
63537;DHT22;49686;51.880;5.632;2023-04-15T01:32:15;4.90;99.90
63537;DHT22;49686;51.880;5.632;2023-04-15T01:34:45;4.90;99.90
63537;DHT22;49686;51.880;5.632;2023-04-15T01:37:11;5.00;99.90
63537;DHT22;49686;51.880;5.632;2023-04-15T01:39:52;4.80;99.90
63537;DHT22;49686;51.880;5.632;2023-04-15T01:42:23;4.80;99.90
63537;DHT22;49686;51.880;5.632;2023-04-15T01:44:59;4.80;99.90
63537;DHT22;49686;51.880;5.632;2023-04-15T01:47:26;5.00;99.90
63537;DHT22;49686;51.880;5.632;2023-04-15T01:49:53;4.90;99.90
63537;DHT22;49686;51.880;5.632;2023-04-15T01:52:22;4.90;99.90
63537;DHT22;49686;51.880;5.632;2023-04-15T01:54:49;4.80;99.90
63537;DHT22;49686;51.880;5.632;2023-04-15T01:57:16;4.90;99.90
63537;DHT22;49686;51.880;5.632;2023-04-15T01:59:44;4.90;99.90
63537;DHT22;49686;51.880;5.632;2023-04-15T02:02:11;4.90;99.90
63537;DHT22;49686;51.880;5.632;2023-04-15T02:04:38;4.90;99.90
63537;DHT22;49686;51.880;5.632;2023-04-15T02:07:05;4.80;99.90
63537;DHT22;49686;51.880;5.632;2023-04-15T02:09:31;4.80;99.90
63537;DHT22;49686;51.880;5.632;2023-04-15T02:12:01;4.80;99.90
63537;DHT22;49686;51.880;5.632;2023-04-15T02:14:30;4.80;99.90
63537;DHT22;49686;51.880;5.632;2023-04-15T02:17:04;4.80;99.90
63537;DHT22;49686;51.880;5.632;2023-04-15T02:19:30;4.70;99.90
63537;DHT22;49686;51.880;5.632;2023-04-15T02:21:57;4.80;99.90
63537;DHT22;49686;51.880;5.632;2023-04-15T02:24:28;4.80;99.90
63537;DHT22;49686;51.880;5.632;2023-04-15T02:26:58;4.70;99.90
63537;DHT22;49686;51.880;5.632;2023-04-15T02:29:25;4.70;99.90
63537;DHT22;49686;51.880;5.632;2023-04-15T02:31:54;4.70;99.90
63537;DHT22;49686;51.880;5.632;2023-04-15T02:34:28;4.70;99.90
63537;DHT22;49686;51.880;5.632;2023-04-15T02:36:58;4.70;99.90
63537;DHT22;49686;51.880;5.632;2023-04-15T02:39:25;4.60;99.90
63537;DHT22;49686;51.880;5.632;2023-04-15T02:41:57;4.50;99.90
63537;DHT22;49686;51.880;5.632;2023-04-15T02:44:29;4.60;99.90
63537;DHT22;49686;51.880;5.632;2023-04-15T02:46:58;4.50;99.90
63537;DHT22;49686;51.880;5.632;2023-04-15T02:49:25;4.60;99.90
63537;DHT22;49686;51.880;5.632;2023-04-15T02:51:53;4.50;99.90
63537;DHT22;49686;51.880;5.632;2023-04-15T02:54:21;4.50;99.90
63537;DHT22;49686;51.880;5.632;2023-04-15T02:56:48;4.60;99.90
63537;DHT22;49686;51.880;5.632;2023-04-15T02:59:17;4.50;99.90
63537;DHT22;49686;51.880;5.632;2023-04-15T03:01:44;4.60;99.90
63537;DHT22;49686;51.880;5.632;2023-04-15T03:04:11;4.70;99.90
63537;DHT22;49686;51.880;5.632;2023-04-15T03:06:38;4.70;99.90
63537;DHT22;49686;51.880;5.632;2023-04-15T03:09:11;4.60;99.90
63537;DHT22;49686;51.880;5.632;2023-04-15T03:11:38;4.70;99.90
63537;DHT22;49686;51.880;5.632;2023-04-15T03:14:05;4.90;99.90
63537;DHT22;49686;51.880;5.632;2023-04-15T03:16:35;4.80;99.90
63537;DHT22;49686;51.880;5.632;2023-04-15T03:19:01;4.70;99.90
63537;DHT22;49686;51.880;5.632;2023-04-15T03:21:31;4.80;99.90
63537;DHT22;49686;51.880;5.632;2023-04-15T03:23:58;4.70;99.90
63537;DHT22;49686;51.880;5.632;2023-04-15T03:26:27;4.60;99.90
63537;DHT22;49686;51.880;5.632;2023-04-15T03:28:54;4.60;99.90
63537;DHT22;49686;51.880;5.632;2023-04-15T03:31:21;4.50;99.90
63537;DHT22;49686;51.880;5.632;2023-04-15T03:33:49;4.40;99.90
63537;DHT22;49686;51.880;5.632;2023-04-15T03:36:16;4.30;99.90
63537;DHT22;49686;51.880;5.632;2023-04-15T03:38:45;4.20;99.90
63537;DHT22;49686;51.880;5.632;2023-04-15T03:41:12;4.20;99.90
63537;DHT22;49686;51.880;5.632;2023-04-15T03:43:41;4.20;99.90
63537;DHT22;49686;51.880;5.632;2023-04-15T03:46:09;4.30;99.90
63537;DHT22;49686;51.880;5.632;2023-04-15T03:48:38;4.20;99.90
63537;DHT22;49686;51.880;5.632;2023-04-15T03:51:06;4.20;99.90
63537;DHT22;49686;51.880;5.632;2023-04-15T03:53:38;4.10;99.90
63537;DHT22;49686;51.880;5.632;2023-04-15T03:56:06;4.10;99.90
63537;DHT22;49686;51.880;5.632;2023-04-15T03:58:35;4.10;99.90
63537;DHT22;49686;51.880;5.632;2023-04-15T04:01:04;4.10;99.90
63537;DHT22;49686;51.880;5.632;2023-04-15T04:03:30;4.00;99.90
63537;DHT22;49686;51.880;5.632;2023-04-15T04:06:00;4.00;99.90
63537;DHT22;49686;51.880;5.632;2023-04-15T04:08:27;4.00;99.90
63537;DHT22;49686;51.880;5.632;2023-04-15T04:10:54;4.00;99.90
63537;DHT22;49686;51.880;5.632;2023-04-15T04:13:20;4.00;99.90
63537;DHT22;49686;51.880;5.632;2023-04-15T04:15:49;3.90;99.90
63537;DHT22;49686;51.880;5.632;2023-04-15T04:18:17;3.80;99.90
63537;DHT22;49686;51.880;5.632;2023-04-15T04:20:44;3.90;99.90
63537;DHT22;49686;51.880;5.632;2023-04-15T04:23:13;3.70;99.90
63537;DHT22;49686;51.880;5.632;2023-04-15T04:25:40;3.60;99.90
63537;DHT22;49686;51.880;5.632;2023-04-15T04:28:08;3.60;99.90
63537;DHT22;49686;51.880;5.632;2023-04-15T04:30:35;3.50;99.90
63537;DHT22;49686;51.880;5.632;2023-04-15T04:33:02;3.40;99.90
63537;DHT22;49686;51.880;5.632;2023-04-15T04:35:30;3.20;99.90
63537;DHT22;49686;51.880;5.632;2023-04-15T04:37:57;3.30;99.90
63537;DHT22;49686;51.880;5.632;2023-04-15T04:40:23;3.20;99.90
63537;DHT22;49686;51.880;5.632;2023-04-15T04:42:53;3.20;99.90
63537;DHT22;49686;51.880;5.632;2023-04-15T04:45:20;3.20;99.90
63537;DHT22;49686;51.880;5.632;2023-04-15T04:47:53;3.20;99.90
63537;DHT22;49686;51.880;5.632;2023-04-15T04:50:19;3.10;99.90
63537;DHT22;49686;51.880;5.632;2023-04-15T04:52:48;3.10;99.90
63537;DHT22;49686;51.880;5.632;2023-04-15T04:55:19;3.00;99.90
63537;DHT22;49686;51.880;5.632;2023-04-15T04:57:46;2.90;99.90
63537;DHT22;49686;51.880;5.632;2023-04-15T05:00:13;2.70;99.90
63537;DHT22;49686;51.880;5.632;2023-04-15T05:02:40;2.80;99.90
63537;DHT22;49686;51.880;5.632;2023-04-15T05:05:09;2.80;99.90
63537;DHT22;49686;51.880;5.632;2023-04-15T05:07:37;2.90;99.90
63537;DHT22;49686;51.880;5.632;2023-04-15T05:10:08;3.00;99.90
63537;DHT22;49686;51.880;5.632;2023-04-15T05:12:38;2.90;99.90
63537;DHT22;49686;51.880;5.632;2023-04-15T05:15:06;3.00;99.90
63537;DHT22;49686;51.880;5.632;2023-04-15T05:17:33;3.00;99.90
63537;DHT22;49686;51.880;5.632;2023-04-15T05:20:09;3.00;99.90
63537;DHT22;49686;51.880;5.632;2023-04-15T05:22:39;3.10;99.90
63537;DHT22;49686;51.880;5.632;2023-04-15T05:25:08;3.20;99.90
63537;DHT22;49686;51.880;5.632;2023-04-15T05:27:35;3.30;99.90
63537;DHT22;49686;51.880;5.632;2023-04-15T05:30:01;3.30;99.90
63537;DHT22;49686;51.880;5.632;2023-04-15T05:32:31;3.40;99.90
63537;DHT22;49686;51.880;5.632;2023-04-15T05:34:58;3.40;99.90
63537;DHT22;49686;51.880;5.632;2023-04-15T05:37:26;3.60;99.90
63537;DHT22;49686;51.880;5.632;2023-04-15T05:39:53;3.70;99.90
63537;DHT22;49686;51.880;5.632;2023-04-15T05:42:24;3.80;99.90
63537;DHT22;49686;51.880;5.632;2023-04-15T05:44:53;3.90;99.90
63537;DHT22;49686;51.880;5.632;2023-04-15T05:47:22;4.00;99.90
63537;DHT22;49686;51.880;5.632;2023-04-15T05:49:49;4.20;99.90
63537;DHT22;49686;51.880;5.632;2023-04-15T05:52:18;4.30;99.90
63537;DHT22;49686;51.880;5.632;2023-04-15T05:54:47;4.40;99.90
63537;DHT22;49686;51.880;5.632;2023-04-15T05:57:14;4.40;99.90
63537;DHT22;49686;51.880;5.632;2023-04-15T05:59:42;4.50;99.90
63537;DHT22;49686;51.880;5.632;2023-04-15T06:02:14;4.60;99.90
63537;DHT22;49686;51.880;5.632;2023-04-15T06:04:44;4.70;99.90
63537;DHT22;49686;51.880;5.632;2023-04-15T06:07:13;4.90;99.90
63537;DHT22;49686;51.880;5.632;2023-04-15T06:09:40;5.00;99.90
63537;DHT22;49686;51.880;5.632;2023-04-15T06:12:06;5.10;99.90
63537;DHT22;49686;51.880;5.632;2023-04-15T06:14:36;5.80;99.90
63537;DHT22;49686;51.880;5.632;2023-04-15T06:17:04;6.00;99.90
63537;DHT22;49686;51.880;5.632;2023-04-15T06:19:31;6.20;99.90
63537;DHT22;49686;51.880;5.632;2023-04-15T06:21:59;6.60;99.90
63537;DHT22;49686;51.880;5.632;2023-04-15T06:24:27;6.70;99.90
63537;DHT22;49686;51.880;5.632;2023-04-15T06:26:54;7.00;99.90
63537;DHT22;49686;51.880;5.632;2023-04-15T06:29:21;7.00;99.90
63537;DHT22;49686;51.880;5.632;2023-04-15T06:31:49;7.40;99.90
63537;DHT22;49686;51.880;5.632;2023-04-15T06:34:17;7.60;99.90
63537;DHT22;49686;51.880;5.632;2023-04-15T06:36:44;7.80;99.90
63537;DHT22;49686;51.880;5.632;2023-04-15T06:39:11;7.90;99.90
63537;DHT22;49686;51.880;5.632;2023-04-15T06:41:38;7.90;99.90
63537;DHT22;49686;51.880;5.632;2023-04-15T06:44:05;8.10;99.90
63537;DHT22;49686;51.880;5.632;2023-04-15T06:46:32;8.20;99.90
63537;DHT22;49686;51.880;5.632;2023-04-15T06:49:01;8.40;99.90
63537;DHT22;49686;51.880;5.632;2023-04-15T06:51:30;8.40;99.90
63537;DHT22;49686;51.880;5.632;2023-04-15T06:53:56;7.80;99.90
63537;DHT22;49686;51.880;5.632;2023-04-15T06:56:23;8.10;99.90
63537;DHT22;49686;51.880;5.632;2023-04-15T06:58:58;8.20;99.90
63537;DHT22;49686;51.880;5.632;2023-04-15T07:01:32;8.10;99.90
63537;DHT22;49686;51.880;5.632;2023-04-15T07:04:01;8.60;99.90
63537;DHT22;49686;51.880;5.632;2023-04-15T07:06:27;8.90;99.90
63537;DHT22;49686;51.880;5.632;2023-04-15T07:08:56;9.60;99.90
63537;DHT22;49686;51.880;5.632;2023-04-15T07:11:22;9.90;99.90
63537;DHT22;49686;51.880;5.632;2023-04-15T07:13:49;9.10;99.90
63537;DHT22;49686;51.880;5.632;2023-04-15T07:16:16;9.30;99.90
63537;DHT22;49686;51.880;5.632;2023-04-15T07:18:43;10.10;99.90
63537;DHT22;49686;51.880;5.632;2023-04-15T07:21:12;9.70;99.90
63537;DHT22;49686;51.880;5.632;2023-04-15T07:23:43;9.40;99.90
63537;DHT22;49686;51.880;5.632;2023-04-15T07:26:11;10.00;99.90
63537;DHT22;49686;51.880;5.632;2023-04-15T07:28:37;9.80;99.90
63537;DHT22;49686;51.880;5.632;2023-04-15T07:31:04;10.10;99.90
63537;DHT22;49686;51.880;5.632;2023-04-15T07:33:31;10.30;99.90
63537;DHT22;49686;51.880;5.632;2023-04-15T07:36:01;9.70;99.90
63537;DHT22;49686;51.880;5.632;2023-04-15T07:38:28;9.70;99.90
63537;DHT22;49686;51.880;5.632;2023-04-15T07:40:55;9.40;99.90
63537;DHT22;49686;51.880;5.632;2023-04-15T07:43:24;9.70;99.90
63537;DHT22;49686;51.880;5.632;2023-04-15T07:45:51;10.20;99.90
63537;DHT22;49686;51.880;5.632;2023-04-15T07:48:17;9.80;99.90
63537;DHT22;49686;51.880;5.632;2023-04-15T07:50:44;9.10;99.90
63537;DHT22;49686;51.880;5.632;2023-04-15T07:53:15;9.00;99.90
63537;DHT22;49686;51.880;5.632;2023-04-15T07:55:42;8.90;99.90
63537;DHT22;49686;51.880;5.632;2023-04-15T07:58:09;9.00;99.90
63537;DHT22;49686;51.880;5.632;2023-04-15T08:00:37;8.80;99.90
63537;DHT22;49686;51.880;5.632;2023-04-15T08:03:04;9.00;99.90
63537;DHT22;49686;51.880;5.632;2023-04-15T08:05:31;9.20;99.90
63537;DHT22;49686;51.880;5.632;2023-04-15T08:07:59;9.70;99.90
63537;DHT22;49686;51.880;5.632;2023-04-15T08:10:26;9.20;99.90
63537;DHT22;49686;51.880;5.632;2023-04-15T08:12:53;8.60;99.90
63537;DHT22;49686;51.880;5.632;2023-04-15T08:15:20;8.90;99.90
63537;DHT22;49686;51.880;5.632;2023-04-15T08:17:48;8.70;99.90
63537;DHT22;49686;51.880;5.632;2023-04-15T08:20:15;8.80;99.90
63537;DHT22;49686;51.880;5.632;2023-04-15T08:22:42;8.90;99.90
63537;DHT22;49686;51.880;5.632;2023-04-15T08:25:12;8.80;99.90
63537;DHT22;49686;51.880;5.632;2023-04-15T08:27:39;8.70;99.90
63537;DHT22;49686;51.880;5.632;2023-04-15T08:30:09;8.90;99.90
63537;DHT22;49686;51.880;5.632;2023-04-15T08:32:36;8.90;99.90
63537;DHT22;49686;51.880;5.632;2023-04-15T08:35:08;8.60;99.90
63537;DHT22;49686;51.880;5.632;2023-04-15T08:37:37;8.90;99.90
63537;DHT22;49686;51.880;5.632;2023-04-15T08:40:09;9.00;99.90
63537;DHT22;49686;51.880;5.632;2023-04-15T08:42:42;8.90;99.90
63537;DHT22;49686;51.880;5.632;2023-04-15T08:45:10;8.90;99.90
63537;DHT22;49686;51.880;5.632;2023-04-15T08:47:38;9.00;99.90
63537;DHT22;49686;51.880;5.632;2023-04-15T08:50:08;9.20;99.90
63537;DHT22;49686;51.880;5.632;2023-04-15T08:52:38;9.40;99.90
63537;DHT22;49686;51.880;5.632;2023-04-15T08:55:08;9.20;99.90
63537;DHT22;49686;51.880;5.632;2023-04-15T08:57:45;9.20;99.90
63537;DHT22;49686;51.880;5.632;2023-04-15T09:00:14;9.30;99.90
63537;DHT22;49686;51.880;5.632;2023-04-15T09:02:42;9.50;99.90
63537;DHT22;49686;51.880;5.632;2023-04-15T09:05:11;9.30;99.90
63537;DHT22;49686;51.880;5.632;2023-04-15T09:07:41;9.60;99.90
63537;DHT22;49686;51.880;5.632;2023-04-15T09:10:13;9.90;99.90
63537;DHT22;49686;51.880;5.632;2023-04-15T09:12:42;9.80;99.90
63537;DHT22;49686;51.880;5.632;2023-04-15T09:15:10;10.40;99.90
63537;DHT22;49686;51.880;5.632;2023-04-15T09:17:41;9.50;99.90
63537;DHT22;49686;51.880;5.632;2023-04-15T09:20:14;9.70;99.90
63537;DHT22;49686;51.880;5.632;2023-04-15T09:22:45;10.00;99.90
63537;DHT22;49686;51.880;5.632;2023-04-15T09:25:25;10.10;99.90
63537;DHT22;49686;51.880;5.632;2023-04-15T09:27:55;10.00;99.90
63537;DHT22;49686;51.880;5.632;2023-04-15T09:30:27;10.00;99.90
63537;DHT22;49686;51.880;5.632;2023-04-15T09:32:55;10.10;99.90
63537;DHT22;49686;51.880;5.632;2023-04-15T09:35:28;10.00;99.90
63537;DHT22;49686;51.880;5.632;2023-04-15T09:38:01;9.90;99.90
63537;DHT22;49686;51.880;5.632;2023-04-15T09:40:34;10.40;99.90
63537;DHT22;49686;51.880;5.632;2023-04-15T09:43:02;10.10;99.90
63537;DHT22;49686;51.880;5.632;2023-04-15T09:45:29;10.10;99.90
63537;DHT22;49686;51.880;5.632;2023-04-15T09:47:56;10.40;99.90
63537;DHT22;49686;51.880;5.632;2023-04-15T09:50:28;10.40;99.90
63537;DHT22;49686;51.880;5.632;2023-04-15T09:53:02;10.90;99.90
63537;DHT22;49686;51.880;5.632;2023-04-15T09:55:32;10.80;99.90
63537;DHT22;49686;51.880;5.632;2023-04-15T09:57:58;10.90;99.90
63537;DHT22;49686;51.880;5.632;2023-04-15T10:00:27;11.10;99.90
63537;DHT22;49686;51.880;5.632;2023-04-15T10:02:55;11.30;99.90
63537;DHT22;49686;51.880;5.632;2023-04-15T10:05:22;11.00;99.90
63537;DHT22;49686;51.880;5.632;2023-04-15T10:07:50;11.10;99.90
63537;DHT22;49686;51.880;5.632;2023-04-15T10:10:17;11.70;99.90
63537;DHT22;49686;51.880;5.632;2023-04-15T10:12:45;11.80;99.90
63537;DHT22;49686;51.880;5.632;2023-04-15T10:15:14;11.50;99.90
63537;DHT22;49686;51.880;5.632;2023-04-15T10:17:43;11.70;99.90
63537;DHT22;49686;51.880;5.632;2023-04-15T10:20:11;11.90;99.90
63537;DHT22;49686;51.880;5.632;2023-04-15T10:22:40;11.80;99.90
63537;DHT22;49686;51.880;5.632;2023-04-15T10:25:09;11.90;99.90
63537;DHT22;49686;51.880;5.632;2023-04-15T10:28:01;12.30;99.90
63537;DHT22;49686;51.880;5.632;2023-04-15T10:30:35;12.30;99.90
63537;DHT22;49686;51.880;5.632;2023-04-15T10:33:02;12.40;99.90
63537;DHT22;49686;51.880;5.632;2023-04-15T10:35:30;11.50;99.90
63537;DHT22;49686;51.880;5.632;2023-04-15T10:37:57;11.80;99.90
63537;DHT22;49686;51.880;5.632;2023-04-15T10:40:29;11.70;99.90
63537;DHT22;49686;51.880;5.632;2023-04-15T10:42:58;11.40;99.90
63537;DHT22;49686;51.880;5.632;2023-04-15T10:45:26;11.50;99.90
63537;DHT22;49686;51.880;5.632;2023-04-15T10:47:56;12.10;99.90
63537;DHT22;49686;51.880;5.632;2023-04-15T10:50:25;12.10;99.90
63537;DHT22;49686;51.880;5.632;2023-04-15T10:52:58;11.90;99.90
63537;DHT22;49686;51.880;5.632;2023-04-15T10:55:31;11.50;99.90
63537;DHT22;49686;51.880;5.632;2023-04-15T10:57:59;11.40;99.90
63537;DHT22;49686;51.880;5.632;2023-04-15T11:00:28;11.40;99.90
63537;DHT22;49686;51.880;5.632;2023-04-15T11:02:56;11.30;99.90
63537;DHT22;49686;51.880;5.632;2023-04-15T11:05:47;11.10;99.90
63537;DHT22;49686;51.880;5.632;2023-04-15T11:08:14;11.40;99.90
63537;DHT22;49686;51.880;5.632;2023-04-15T11:10:52;11.30;99.90
63537;DHT22;49686;51.880;5.632;2023-04-15T11:13:28;11.50;99.90
63537;DHT22;49686;51.880;5.632;2023-04-15T11:15:56;11.60;99.90
63537;DHT22;49686;51.880;5.632;2023-04-15T11:18:24;11.60;99.90
63537;DHT22;49686;51.880;5.632;2023-04-15T11:20:52;11.30;99.90
63537;DHT22;49686;51.880;5.632;2023-04-15T11:23:27;11.20;99.90
63537;DHT22;49686;51.880;5.632;2023-04-15T11:25:56;11.50;99.90
63537;DHT22;49686;51.880;5.632;2023-04-15T11:28:24;11.80;99.90
63537;DHT22;49686;51.880;5.632;2023-04-15T11:30:51;11.40;99.90
63537;DHT22;49686;51.880;5.632;2023-04-15T11:33:18;11.50;99.90
63537;DHT22;49686;51.880;5.632;2023-04-15T11:35:45;11.90;99.90
63537;DHT22;49686;51.880;5.632;2023-04-15T11:38:12;11.50;99.90
63537;DHT22;49686;51.880;5.632;2023-04-15T11:40:44;11.50;99.90
63537;DHT22;49686;51.880;5.632;2023-04-15T11:43:15;12.10;99.90
63537;DHT22;49686;51.880;5.632;2023-04-15T11:45:50;11.60;99.90
63537;DHT22;49686;51.880;5.632;2023-04-15T11:48:18;11.70;99.90
63537;DHT22;49686;51.880;5.632;2023-04-15T11:50:55;11.80;99.90
63537;DHT22;49686;51.880;5.632;2023-04-15T11:53:23;11.80;99.90
63537;DHT22;49686;51.880;5.632;2023-04-15T11:55:52;11.80;99.90
63537;DHT22;49686;51.880;5.632;2023-04-15T11:58:22;11.80;99.90
63537;DHT22;49686;51.880;5.632;2023-04-15T12:00:52;11.90;99.90
63537;DHT22;49686;51.880;5.632;2023-04-15T12:03:26;12.30;99.90
63537;DHT22;49686;51.880;5.632;2023-04-15T12:06:16;12.90;99.90
63537;DHT22;49686;51.880;5.632;2023-04-15T12:09:07;12.50;99.90
63537;DHT22;49686;51.880;5.632;2023-04-15T12:11:45;12.70;99.90
63537;DHT22;49686;51.880;5.632;2023-04-15T12:14:19;12.50;99.90
63537;DHT22;49686;51.880;5.632;2023-04-15T12:16:50;12.40;99.90
63537;DHT22;49686;51.880;5.632;2023-04-15T12:19:23;12.70;99.90
63537;DHT22;49686;51.880;5.632;2023-04-15T12:21:50;12.30;99.90
63537;DHT22;49686;51.880;5.632;2023-04-15T12:24:19;12.10;99.90
63537;DHT22;49686;51.880;5.632;2023-04-15T12:26:48;12.10;99.90
63537;DHT22;49686;51.880;5.632;2023-04-15T12:29:16;12.30;99.90
63537;DHT22;49686;51.880;5.632;2023-04-15T12:31:57;12.00;99.90
63537;DHT22;49686;51.880;5.632;2023-04-15T12:34:30;12.50;99.90
63537;DHT22;49686;51.880;5.632;2023-04-15T12:36:58;12.90;99.90
63537;DHT22;49686;51.880;5.632;2023-04-15T12:39:26;13.10;99.90
63537;DHT22;49686;51.880;5.632;2023-04-15T12:41:56;12.90;99.90
63537;DHT22;49686;51.880;5.632;2023-04-15T12:44:24;12.30;99.90
63537;DHT22;49686;51.880;5.632;2023-04-15T12:46:51;13.10;99.90
63537;DHT22;49686;51.880;5.632;2023-04-15T12:49:19;12.70;99.90
63537;DHT22;49686;51.880;5.632;2023-04-15T12:51:46;12.50;99.90
63537;DHT22;49686;51.880;5.632;2023-04-15T12:54:14;12.30;99.90
63537;DHT22;49686;51.880;5.632;2023-04-15T12:56:41;12.10;99.90
63537;DHT22;49686;51.880;5.632;2023-04-15T12:59:10;12.00;99.90
63537;DHT22;49686;51.880;5.632;2023-04-15T13:01:38;12.30;99.90
63537;DHT22;49686;51.880;5.632;2023-04-15T13:04:05;12.50;99.90
63537;DHT22;49686;51.880;5.632;2023-04-15T13:06:32;11.70;99.90
63537;DHT22;49686;51.880;5.632;2023-04-15T13:08:59;12.10;99.90
63537;DHT22;49686;51.880;5.632;2023-04-15T13:11:26;12.30;99.90
63537;DHT22;49686;51.880;5.632;2023-04-15T13:13:53;12.20;99.90
63537;DHT22;49686;51.880;5.632;2023-04-15T13:16:20;11.90;99.90
63537;DHT22;49686;51.880;5.632;2023-04-15T13:18:48;11.80;99.90
63537;DHT22;49686;51.880;5.632;2023-04-15T13:21:17;12.20;99.90
63537;DHT22;49686;51.880;5.632;2023-04-15T13:23:45;12.00;99.90
63537;DHT22;49686;51.880;5.632;2023-04-15T13:26:12;11.50;99.90
63537;DHT22;49686;51.880;5.632;2023-04-15T13:28:39;11.70;99.90
63537;DHT22;49686;51.880;5.632;2023-04-15T13:31:05;11.90;99.90
63537;DHT22;49686;51.880;5.632;2023-04-15T13:33:32;11.50;99.90
63537;DHT22;49686;51.880;5.632;2023-04-15T13:36:01;11.20;99.90
63537;DHT22;49686;51.880;5.632;2023-04-15T13:38:27;11.00;99.90
63537;DHT22;49686;51.880;5.632;2023-04-15T13:40:54;11.50;99.90
63537;DHT22;49686;51.880;5.632;2023-04-15T13:43:21;11.80;99.90
63537;DHT22;49686;51.880;5.632;2023-04-15T13:45:48;12.40;99.90
63537;DHT22;49686;51.880;5.632;2023-04-15T13:48:16;12.10;99.90
63537;DHT22;49686;51.880;5.632;2023-04-15T13:50:42;11.80;99.90
63537;DHT22;49686;51.880;5.632;2023-04-15T13:53:11;12.00;99.90
63537;DHT22;49686;51.880;5.632;2023-04-15T13:55:38;12.00;99.90
63537;DHT22;49686;51.880;5.632;2023-04-15T13:58:04;11.70;99.90
63537;DHT22;49686;51.880;5.632;2023-04-15T14:00:32;11.10;99.90
63537;DHT22;49686;51.880;5.632;2023-04-15T14:02:59;11.30;99.90
63537;DHT22;49686;51.880;5.632;2023-04-15T14:05:26;10.90;99.90
63537;DHT22;49686;51.880;5.632;2023-04-15T14:07:56;10.90;99.90
63537;DHT22;49686;51.880;5.632;2023-04-15T14:10:24;10.90;99.90
63537;DHT22;49686;51.880;5.632;2023-04-15T14:12:50;10.70;99.90
63537;DHT22;49686;51.880;5.632;2023-04-15T14:15:18;10.80;99.90
63537;DHT22;49686;51.880;5.632;2023-04-15T14:17:47;10.50;99.90
63537;DHT22;49686;51.880;5.632;2023-04-15T14:20:17;10.30;99.90
63537;DHT22;49686;51.880;5.632;2023-04-15T14:22:44;10.10;99.90
63537;DHT22;49686;51.880;5.632;2023-04-15T14:25:10;10.50;99.90
63537;DHT22;49686;51.880;5.632;2023-04-15T14:27:50;10.40;99.90
63537;DHT22;49686;51.880;5.632;2023-04-15T14:30:17;10.40;99.90
63537;DHT22;49686;51.880;5.632;2023-04-15T14:32:44;10.20;99.90
63537;DHT22;49686;51.880;5.632;2023-04-15T14:35:11;9.90;99.90
63537;DHT22;49686;51.880;5.632;2023-04-15T14:37:37;10.20;99.90
63537;DHT22;49686;51.880;5.632;2023-04-15T14:40:08;10.20;99.90
63537;DHT22;49686;51.880;5.632;2023-04-15T14:42:37;10.20;99.90
63537;DHT22;49686;51.880;5.632;2023-04-15T14:45:07;9.90;99.90
63537;DHT22;49686;51.880;5.632;2023-04-15T14:47:36;9.90;99.90
63537;DHT22;49686;51.880;5.632;2023-04-15T14:50:03;9.80;99.90
63537;DHT22;49686;51.880;5.632;2023-04-15T14:52:30;9.60;99.90
63537;DHT22;49686;51.880;5.632;2023-04-15T14:54:57;9.70;99.90
63537;DHT22;49686;51.880;5.632;2023-04-15T14:57:27;9.60;99.90
63537;DHT22;49686;51.880;5.632;2023-04-15T14:59:54;9.30;99.90
63537;DHT22;49686;51.880;5.632;2023-04-15T15:02:22;9.20;99.90
63537;DHT22;49686;51.880;5.632;2023-04-15T15:05:05;9.20;99.90
63537;DHT22;49686;51.880;5.632;2023-04-15T15:07:32;9.20;99.90
63537;DHT22;49686;51.880;5.632;2023-04-15T15:09:59;9.10;99.90
63537;DHT22;49686;51.880;5.632;2023-04-15T15:12:26;9.10;99.90
63537;DHT22;49686;51.880;5.632;2023-04-15T15:14:54;9.00;99.90
63537;DHT22;49686;51.880;5.632;2023-04-15T15:17:22;9.00;99.90
63537;DHT22;49686;51.880;5.632;2023-04-15T15:19:51;8.90;99.90
63537;DHT22;49686;51.880;5.632;2023-04-15T15:22:19;8.80;99.90
63537;DHT22;49686;51.880;5.632;2023-04-15T15:24:47;8.80;99.90
63537;DHT22;49686;51.880;5.632;2023-04-15T15:27:14;8.60;99.90
63537;DHT22;49686;51.880;5.632;2023-04-15T15:29:41;8.80;99.90
63537;DHT22;49686;51.880;5.632;2023-04-15T15:32:08;8.70;99.90
63537;DHT22;49686;51.880;5.632;2023-04-15T15:34:36;8.50;99.90
63537;DHT22;49686;51.880;5.632;2023-04-15T15:37:03;8.40;99.90
63537;DHT22;49686;51.880;5.632;2023-04-15T15:39:29;8.40;99.90
63537;DHT22;49686;51.880;5.632;2023-04-15T15:41:56;8.30;99.90
63537;DHT22;49686;51.880;5.632;2023-04-15T15:44:26;8.30;99.90
63537;DHT22;49686;51.880;5.632;2023-04-15T15:46:53;8.30;99.90
63537;DHT22;49686;51.880;5.632;2023-04-15T15:49:20;8.30;99.90